Time;durP1;ratioP1;P1;durP2;ratioP2;P2;SDS_P1;SDS_P2;PMS_P1;PMS_P2;Temp;Humidity;BMP_temperature;BMP_pressure;BME280_temperature;BME280_humidity;BME280_pressure;Samples;Min_cycle;Max_cycle;Signal;HPM_P1;HPM_P2
2022/03/12 00:01:06;;;;;;;0.77;0.77;;;5.40;96.40;;;5.34;54.10;98789.06;5137019;27;20270;-75
2022/03/12 00:03:35;;;;;;;0.73;0.73;;;5.30;96.50;;;5.39;54.58;98803.06;5142941;27;20195;-75
2022/03/12 00:06:05;;;;;;;0.80;0.80;;;5.30;96.60;;;5.33;54.15;98786.44;5134374;27;20211;-76
2022/03/12 00:08:44;;;;;;;3.45;3.13;;;5.30;96.30;;;5.06;54.72;98760.97;5139471;27;20217;-75
2022/03/12 00:11:18;;;;;;;0.50;0.50;;;5.30;96.70;;;4.97;55.72;98768.78;5137908;27;20208;-76
2022/03/12 00:13:47;;;;;;;0.40;0.40;;;5.20;97.10;;;4.95;56.29;98792.34;5146958;27;20200;-75
2022/03/12 00:16:22;;;;;;;0.70;0.70;;;5.10;97.60;;;5.22;55.79;98832.69;5133681;27;20207;-75
2022/03/12 00:19:00;;;;;;;1.02;0.93;;;5.10;97.50;;;5.49;54.11;98866.88;5144665;27;20205;-75
2022/03/12 00:21:33;;;;;;;0.32;0.32;;;5.10;96.90;;;5.26;54.57;98834.44;5143861;27;20195;-75
2022/03/12 00:24:03;;;;;;;0.55;0.55;;;5.10;96.80;;;5.15;55.18;98836.97;5150218;27;20195;-75
2022/03/12 00:26:33;;;;;;;0.88;0.85;;;5.10;97.20;;;5.83;53.85;98954.44;5140870;27;20215;-75
2022/03/12 00:29:02;;;;;;;0.70;0.70;;;5.20;96.60;;;5.86;53.05;98928.22;5141397;27;20210;-75
2022/03/12 00:31:32;;;;;;;0.75;0.75;;;5.40;96.00;;;5.55;54.04;98890.50;5143596;27;20683;-75
2022/03/12 00:34:00;;;;;;;0.50;0.50;;;5.40;96.90;;;5.63;53.69;98891.41;5138976;27;20196;-75
2022/03/12 00:36:28;;;;;;;3.22;3.00;;;5.30;96.20;;;5.42;54.84;98883.44;5134975;27;20211;-75
2022/03/12 00:38:56;;;;;;;1.58;1.25;;;5.30;97.30;;;5.42;55.10;98897.44;5135062;27;20208;-75
2022/03/12 00:41:25;;;;;;;0.60;0.60;;;5.30;97.00;;;5.51;55.10;98925.44;5136422;27;20202;-75
2022/03/12 00:43:53;;;;;;;0.40;0.40;;;5.30;97.30;;;5.50;54.98;98909.69;5142581;27;20204;-75
2022/03/12 00:46:22;;;;;;;0.60;0.60;;;5.30;97.60;;;5.44;55.39;98908.81;5138681;27;20208;-75
2022/03/12 00:48:50;;;;;;;1.33;1.23;;;5.30;97.70;;;5.40;55.28;98914.03;5135206;27;20204;-75
2022/03/12 00:51:18;;;;;;;0.75;0.75;;;5.30;97.70;;;5.43;56.27;98933.25;5139205;27;20199;-75
2022/03/12 00:53:46;;;;;;;0.57;0.57;;;5.30;98.40;;;5.76;54.63;98966.66;5134754;27;20239;-77
2022/03/12 00:56:14;;;;;;;0.60;0.60;;;5.30;97.60;;;5.74;54.02;98957.00;5141518;27;20204;-75
2022/03/12 00:58:45;;;;;;;0.50;0.50;;;5.40;97.10;;;5.81;53.83;98950.06;5135263;27;20207;-77
2022/03/12 01:01:14;;;;;;;0.40;0.40;;;5.50;96.70;;;5.61;54.32;98924.59;5145537;27;20200;-75
2022/03/12 01:03:42;;;;;;;0.73;0.73;;;5.50;96.80;;;5.50;54.89;98928.06;5134474;27;20211;-75
2022/03/12 01:06:14;;;;;;;0.75;0.75;;;5.50;97.30;;;5.49;54.92;98926.31;5133628;27;20550;-75
2022/03/12 01:08:42;;;;;;;0.52;0.52;;;5.40;97.20;;;5.36;55.60;98928.84;5143765;27;20214;-75
2022/03/12 01:11:11;;;;;;;0.40;0.40;;;5.40;98.10;;;5.47;55.24;98947.25;5136838;27;20226;-75
2022/03/12 01:13:39;;;;;;;0.70;0.70;;;5.40;97.80;;;5.40;55.32;98935.88;5125237;27;20238;-75
2022/03/12 01:16:08;;;;;;;0.50;0.50;;;5.30;97.60;;;5.29;55.89;98920.94;5143010;27;20207;-75
2022/03/12 01:18:39;;;;;;;0.40;0.40;;;5.30;97.80;;;5.18;56.29;98920.84;5136488;27;20208;-76
2022/03/12 01:21:17;;;;;;;0.85;0.82;;;5.20;98.20;;;5.26;56.55;98950.63;5140777;27;20216;-75
2022/03/12 01:23:49;;;;;;;0.50;0.50;;;5.20;98.60;;;5.18;56.72;98947.06;5140131;27;20206;-75
2022/03/12 01:26:19;;;;;;;0.50;0.50;;;5.20;98.80;;;5.09;57.70;98960.09;5145695;27;20207;-75
2022/03/12 01:28:48;;;;;;;0.57;0.57;;;5.10;99.40;;;5.05;57.77;98958.31;5144810;27;20199;-74
2022/03/12 01:31:17;;;;;;;0.50;0.50;;;5.10;99.30;;;5.14;57.50;98966.25;5146755;27;20215;-75
2022/03/12 01:33:46;;;;;;;0.43;0.43;;;5.00;99.10;;;5.07;57.12;98965.31;5127741;27;20230;-75
2022/03/12 01:36:13;;;;;;;0.50;0.50;;;5.10;99.20;;;5.07;57.66;98981.03;5139790;27;20207;-74
2022/03/12 01:38:51;;;;;;;0.70;0.70;;;5.00;99.50;;;4.99;58.32;99000.19;5141729;27;20212;-74
2022/03/12 01:41:27;;;;;;;0.50;0.50;;;5.00;99.90;;;5.00;58.00;98987.09;5124063;27;20200;-74
2022/03/12 01:43:57;;;;;;;0.50;0.50;;;4.90;99.80;;;4.99;58.47;99000.19;5115889;27;20194;-74
2022/03/12 01:46:35;;;;;;;0.75;0.75;;;4.90;99.90;;;4.97;58.40;99015.00;5134500;27;20207;-74
2022/03/12 01:49:18;;;;;;;1.50;1.27;;;4.90;99.90;;;5.00;58.59;99021.16;5138180;27;20207;-74
2022/03/12 01:51:52;;;;;;;0.68;0.68;;;4.90;99.90;;;5.09;58.32;99039.56;5140675;27;20204;-74
2022/03/12 01:54:25;;;;;;;0.50;0.50;;;4.90;99.90;;;5.04;58.45;99050.88;5150468;27;20222;-72
2022/03/12 01:56:54;;;;;;;0.80;0.80;;;4.90;99.90;;;5.01;58.25;99046.50;5141609;27;20204;-72
2022/03/12 01:59:23;;;;;;;0.50;0.50;;;4.90;99.90;;;4.99;58.40;99047.34;5149679;27;20242;-72
2022/03/12 02:01:52;;;;;;;1.00;0.90;;;4.90;99.90;;;5.01;58.91;99062.22;5140951;27;20203;-72
2022/03/12 02:04:23;;;;;;;3.03;2.45;;;4.90;99.90;;;5.12;58.17;99072.78;5136074;27;20721;-74
2022/03/12 02:06:52;;;;;;;0.70;0.70;;;4.90;99.90;;;5.13;58.58;99085.91;5125994;27;20215;-73
2022/03/12 02:09:21;;;;;;;0.60;0.60;;;5.00;99.90;;;5.18;57.83;99092.91;5125054;27;20219;-73
2022/03/12 02:11:51;;;;;;;0.60;0.60;;;4.90;99.90;;;5.32;57.42;99115.81;5135386;27;20214;-73
2022/03/12 02:14:27;;;;;;;0.80;0.80;;;5.00;99.90;;;5.31;56.62;99103.56;5152535;27;20233;-73
2022/03/12 02:17:00;;;;;;;0.50;0.50;;;5.10;99.40;;;5.24;56.79;99082.53;5136479;27;20203;-72
2022/03/12 02:19:31;;;;;;;0.50;0.50;;;5.20;99.80;;;5.12;57.41;99073.66;5134864;27;20429;-72
2022/03/12 02:22:07;;;;;;;0.60;0.60;;;5.10;99.80;;;5.00;57.79;99070.94;5137823;27;20196;-72
2022/03/12 02:24:37;;;;;;;0.65;0.65;;;5.00;99.90;;;4.92;58.04;99059.50;5140013;27;20561;-71
2022/03/12 02:27:10;;;;;;;0.60;0.60;;;5.00;99.90;;;4.87;58.31;99062.94;5139266;27;20685;-71
2022/03/12 02:29:40;;;;;;;0.40;0.40;;;4.90;99.90;;;4.80;58.78;99068.13;5144653;27;20231;-72
2022/03/12 02:32:11;;;;;;;0.50;0.50;;;5.00;99.90;;;4.87;58.75;99081.28;5136417;27;20204;-72
2022/03/12 02:34:44;;;;;;;1.05;0.98;;;4.90;99.90;;;4.83;59.05;99086.47;5145762;27;20239;-72
2022/03/12 02:37:28;;;;;;;0.30;0.30;;;4.90;99.90;;;4.90;59.12;99097.91;5143020;27;20203;-72
2022/03/12 02:40:06;;;;;;;0.88;0.88;;;4.80;99.90;;;4.85;59.54;99102.22;5141214;27;20223;-72
2022/03/12 02:42:34;;;;;;;1.48;1.38;;;4.90;99.90;;;4.78;59.62;99110.88;5123253;27;20642;-72
2022/03/12 02:45:08;;;;;;;0.60;0.60;;;4.80;99.90;;;4.82;59.29;99117.91;5132925;27;20691;-72
2022/03/12 02:47:43;;;;;;;0.88;0.88;;;4.80;99.90;;;4.77;59.93;99130.06;5132940;27;20204;-73
2022/03/12 02:50:12;;;;;;;0.60;0.60;;;4.80;99.90;;;4.79;59.52;99133.56;5133000;27;20223;-73
2022/03/12 02:52:44;;;;;;;0.73;0.73;;;4.80;99.90;;;4.74;60.03;99144.00;5141818;27;20211;-73
2022/03/12 02:55:22;;;;;;;0.80;0.80;;;4.70;99.90;;;4.74;59.92;99145.75;5137332;27;20211;-73
2022/03/12 02:57:51;;;;;;;0.63;0.63;;;4.70;99.90;;;4.70;60.64;99160.53;5138499;27;20200;-72
2022/03/12 03:00:20;;;;;;;0.90;0.90;;;4.70;99.90;;;4.76;60.15;99160.59;5137406;27;20242;-73
2022/03/12 03:02:53;;;;;;;0.90;0.90;;;4.70;99.90;;;4.79;60.16;99175.47;5121620;27;20218;-73
2022/03/12 03:07:58;;;;;;;0.88;0.88;;;4.70;99.90;;;4.78;60.28;99198.16;5135232;27;20208;-73
2022/03/12 03:10:34;;;;;;;0.60;0.60;;;4.70;99.90;;;4.79;61.04;99209.53;5143482;27;20226;-73
2022/03/12 03:13:17;;;;;;;0.60;0.60;;;4.70;99.90;;;4.90;60.08;99228.00;5154243;27;20259;-73
2022/03/12 03:15:54;;;;;;;0.70;0.70;;;4.80;99.90;;;4.80;61.23;99234.84;5146815;27;20218;-73
2022/03/12 03:18:24;;;;;;;0.70;0.70;;;4.80;99.90;;;4.78;60.91;99245.31;5138122;27;20203;-72
2022/03/12 03:20:54;;;;;;;0.50;0.50;;;4.70;99.90;;;4.81;60.79;99247.97;5135274;27;20687;-72
2022/03/12 03:23:26;;;;;;;0.50;0.50;;;4.80;99.90;;;4.75;61.04;99253.13;5146386;27;20196;-72
2022/03/12 03:25:55;;;;;;;0.80;0.80;;;4.80;99.90;;;4.73;61.24;99264.44;5138910;27;20210;-72
2022/03/12 03:28:23;;;;;;;2.88;2.67;;;4.70;99.90;;;4.78;61.04;99266.25;5138157;27;20212;-72
2022/03/12 03:30:51;;;;;;;0.80;0.80;;;4.70;99.90;;;4.80;60.99;99282.00;5140904;27;20245;-73
2022/03/12 03:33:24;;;;;;;0.70;0.70;;;4.70;99.90;;;4.71;61.76;99287.09;5136988;27;20221;-72
2022/03/12 03:35:52;;;;;;;0.50;0.50;;;4.70;99.90;;;4.73;61.42;99299.38;5133658;27;20200;-72
2022/03/12 03:38:21;;;;;;;0.40;0.40;;;4.70;99.90;;;4.71;61.70;99302.81;5126570;27;20196;-72
2022/03/12 03:40:50;;;;;;;0.88;0.88;;;4.70;99.90;;;4.72;61.91;99315.06;5135332;27;20223;-71
2022/03/12 03:43:21;;;;;;;0.77;0.73;;;4.70;99.90;;;4.69;61.63;99318.50;5142157;27;20944;-72
2022/03/12 03:45:53;;;;;;;0.60;0.60;;;4.70;99.90;;;4.72;61.60;99328.16;5132427;27;20203;-72
2022/03/12 03:48:25;;;;;;;0.60;0.60;;;4.70;99.90;;;4.72;61.57;99338.63;5144056;27;20202;-72
2022/03/12 03:50:54;;;;;;;0.85;0.85;;;4.70;99.90;;;4.76;61.87;99354.41;5129299;27;20230;-71
2022/03/12 03:53:26;;;;;;;0.80;0.80;;;4.70;99.90;;;4.79;61.54;99361.44;5136459;27;20203;-72
2022/03/12 03:55:58;;;;;;;0.60;0.60;;;4.70;99.90;;;4.76;61.52;99354.41;5131897;27;20215;-72
2022/03/12 03:58:28;;;;;;;0.60;0.60;;;4.70;99.90;;;4.75;61.47;99357.88;5144959;27;20203;-73
2022/03/12 04:00:59;;;;;;;0.47;0.47;;;4.70;99.90;;;4.73;61.52;99353.47;5135837;27;20239;-73
2022/03/12 04:03:32;;;;;;;0.73;0.73;;;4.70;99.90;;;4.70;61.54;99358.66;5134839;27;20202;-73
2022/03/12 04:06:03;;;;;;;0.50;0.50;;;4.70;99.90;;;4.67;62.12;99374.34;5142953;27;20211;-73
2022/03/12 04:08:33;;;;;;;0.50;0.50;;;4.70;99.90;;;4.68;62.52;99389.19;5138162;27;20195;-73
2022/03/12 04:11:04;;;;;;;0.50;0.50;;;4.70;99.90;;;4.69;62.02;99391.84;5152123;27;20227;-73
2022/03/12 04:13:33;;;;;;;0.60;0.60;;;4.70;99.90;;;4.66;62.12;99394.41;5146139;27;20206;-72
2022/03/12 04:16:05;;;;;;;0.52;0.52;;;4.70;99.90;;;4.70;61.93;99405.81;5136252;27;20575;-72
2022/03/12 04:18:36;;;;;;;0.70;0.70;;;4.70;99.90;;;4.70;61.99;99408.44;5132971;27;20199;-72
2022/03/12 04:21:06;;;;;;;0.40;0.40;;;4.70;99.90;;;4.69;61.85;99412.78;5135045;27;20235;-72
2022/03/12 04:23:35;;;;;;;0.73;0.73;;;4.70;99.90;;;4.69;61.55;99407.53;5128244;27;20208;-72
2022/03/12 04:26:03;;;;;;;0.40;0.40;;;4.70;99.90;;;4.68;61.32;99408.41;5137023;27;20211;-72
2022/03/12 04:28:32;;;;;;;0.70;0.70;;;4.70;99.90;;;4.60;62.30;99417.88;5117980;27;20210;-72
2022/03/12 04:31:03;;;;;;;0.65;0.65;;;4.60;99.90;;;4.57;62.18;99423.06;5139425;27;20235;-71
2022/03/12 04:33:32;;;;;;;0.50;0.50;;;4.60;99.90;;;4.61;61.77;99424.00;5138130;27;20187;-72
2022/03/12 04:36:03;;;;;;;0.70;0.70;;;4.60;99.90;;;4.57;61.78;99420.44;5124309;27;20226;-76
2022/03/12 04:38:31;;;;;;;0.57;0.57;;;4.60;99.90;;;4.59;61.33;99417.84;5132915;28;20207;-72
2022/03/12 04:40:59;;;;;;;0.43;0.43;;;4.60;99.90;;;4.61;61.14;99411.78;5138615;27;20227;-72
2022/03/12 04:43:29;;;;;;;0.52;0.52;;;4.50;99.90;;;4.50;62.39;99421.19;5137164;27;20196;-71
2022/03/12 04:45:59;;;;;;;0.60;0.60;;;4.60;99.90;;;4.47;62.01;99421.13;5143236;27;20198;-72
2022/03/12 04:48:28;;;;;;;0.50;0.50;;;4.60;99.90;;;4.37;62.63;99427.94;5140422;27;20235;-72
2022/03/12 04:50:57;;;;;;;0.93;0.93;;;4.60;99.90;;;4.38;62.69;99436.69;5132910;27;20215;-72
2022/03/12 04:53:26;;;;;;;0.68;0.68;;;4.50;99.90;;;4.37;62.67;99440.16;5130341;27;20211;-72
2022/03/12 04:55:55;;;;;;;0.40;0.40;;;4.50;99.90;;;4.39;62.03;99433.22;5153903;27;20241;-72
2022/03/12 04:58:23;;;;;;;0.85;0.85;;;4.90;99.90;;;4.33;62.90;99433.09;5137994;27;20207;-72
2022/03/12 05:00:51;;;;;;;0.90;0.90;;;4.40;99.90;;;4.28;62.86;99440.00;5144140;27;20224;-72
2022/03/12 05:03:22;;;;;;;0.63;0.63;;;4.50;99.90;;;4.26;63.92;99454.78;5143109;27;20702;-71
2022/03/12 05:05:53;;;;;;;1.00;1.00;;;4.40;99.90;;;4.23;63.83;99446.88;5140607;27;20199;-72
2022/03/12 05:08:25;;;;;;;0.70;0.70;;;4.40;99.90;;;4.21;64.98;99474.75;5151805;27;20195;-72
2022/03/12 05:10:55;;;;;;;0.50;0.50;;;4.40;99.90;;;4.15;65.14;99480.75;5137688;27;20227;-72
2022/03/12 05:13:30;;;;;;;0.77;0.77;;;4.40;99.90;;;4.18;64.68;99500.00;5143822;27;20207;-72
2022/03/12 05:16:04;;;;;;;0.43;0.43;;;4.30;99.90;;;4.17;64.64;99495.63;5156575;27;20226;-71
2022/03/12 05:18:36;;;;;;;0.70;0.70;;;4.30;99.90;;;4.30;63.45;99522.91;5140080;27;20222;-72
2022/03/12 05:21:06;;;;;;;0.50;0.50;;;4.30;99.90;;;4.21;64.41;99517.50;5154374;27;20230;-72
2022/03/12 05:23:35;;;;;;;0.50;0.50;;;4.30;99.90;;;4.20;63.94;99515.75;5150317;27;20200;-72
2022/03/12 05:26:05;;;;;;;0.73;0.73;;;4.30;99.90;;;4.15;64.34;99515.66;5139510;27;20200;-74
2022/03/12 05:28:35;;;;;;;1.08;1.08;;;4.20;99.90;;;4.18;63.91;99517.44;5135978;27;20552;-75
2022/03/12 05:31:08;;;;;;;0.60;0.60;;;4.30;99.90;;;4.11;64.91;99537.38;5116722;27;20223;-74
2022/03/12 05:33:36;;;;;;;0.70;0.70;;;4.10;99.90;;;4.16;64.56;99551.44;5135735;27;20219;-73
2022/03/12 05:36:05;;;;;;;0.80;0.80;;;4.20;99.90;;;4.14;64.64;99549.63;5135479;27;20235;-73
2022/03/12 05:38:35;;;;;;;0.50;0.50;;;4.20;99.90;;;4.16;64.06;99564.50;5135589;27;20204;-73
2022/03/12 05:41:11;;;;;;;0.45;0.45;;;4.30;99.90;;;4.16;64.42;99567.13;5134622;27;20223;-75
2022/03/12 05:43:45;;;;;;;0.73;0.73;;;4.10;99.90;;;4.12;64.65;99570.53;5125596;27;20211;-74
2022/03/12 05:46:16;;;;;;;0.80;0.80;;;4.20;99.90;;;4.16;64.29;99576.72;5136274;27;20570;-73
2022/03/12 05:48:48;;;;;;;0.88;0.88;;;4.20;99.90;;;4.11;64.90;99584.47;5138792;27;20206;-72
2022/03/12 05:51:17;;;;;;;0.60;0.60;;;4.20;99.90;;;4.16;64.20;99580.22;5126553;27;20207;-73
2022/03/12 05:53:45;;;;;;;0.85;0.82;;;4.00;99.90;;;4.16;63.81;99588.06;5141929;27;20207;-72
2022/03/12 05:56:14;;;;;;;2.40;2.28;;;4.20;99.90;;;4.15;64.32;99596.75;5141425;27;20231;-72
2022/03/12 05:58:42;;;;;;;1.15;1.05;;;4.20;99.90;;;4.22;63.65;99602.13;5142814;27;20211;-73
2022/03/12 06:01:09;;;;;;;1.42;1.27;;;4.20;99.90;;;4.24;63.37;99600.41;5138904;27;20223;-72
2022/03/12 06:03:38;;;;;;;0.80;0.80;;;4.30;99.90;;;4.28;63.08;99603.13;5136231;27;20204;-72
2022/03/12 06:06:08;;;;;;;1.13;1.02;;;4.20;99.90;;;4.36;62.94;99622.50;5138609;27;20207;-73
2022/03/12 06:08:36;;;;;;;1.48;1.25;;;4.30;99.90;;;4.40;62.54;99620.81;5136370;27;20221;-72
2022/03/12 06:11:03;;;;;;;1.20;1.10;;;4.30;99.90;;;4.40;62.70;99620.81;5124302;27;20298;-73
2022/03/12 06:13:32;;;;;;;0.60;0.60;;;4.30;99.90;;;4.42;62.90;99627.84;5137047;27;20207;-72
2022/03/12 06:16:02;;;;;;;0.90;0.88;;;4.40;99.90;;;4.40;63.47;99633.91;5136901;27;20239;-72
2022/03/12 06:18:35;;;;;;;0.82;0.82;;;4.40;99.90;;;4.37;63.96;99647.81;5133610;27;20203;-72
2022/03/12 06:21:06;;;;;;;0.68;0.68;;;4.40;99.90;;;4.41;64.06;99652.28;5138244;27;20234;-74
2022/03/12 06:23:35;;;;;;;0.60;0.60;;;4.40;99.90;;;4.41;64.86;99672.31;5138333;27;20211;-74
2022/03/12 06:26:05;;;;;;;0.82;0.82;;;4.40;99.90;;;4.71;68.61;99817.00;5145021;27;20210;-74
2022/03/12 06:28:37;;;;;;;1.00;0.90;;;4.50;99.90;;;4.72;65.89;99794.31;5109156;27;20203;-73
2022/03/12 06:31:06;;;;;;;0.80;0.80;;;4.60;99.90;;;4.91;68.42;99848.88;5115417;27;20358;-76
2022/03/12 06:33:34;;;;;;;1.52;1.40;;;4.70;99.90;;;4.83;64.71;99796.31;5140390;27;20199;-74
2022/03/12 06:36:03;;;;;;;0.70;0.70;;;4.70;99.90;;;4.86;64.12;99771.03;5145858;27;20223;-72
2022/03/12 06:38:32;;;;;;;0.80;0.80;;;4.80;99.90;;;4.97;63.40;99764.28;5141943;27;20203;-76
2022/03/12 06:41:00;;;;;;;0.73;0.73;;;4.90;99.90;;;5.21;68.57;99884.50;5119842;27;20233;-76
2022/03/12 06:43:30;;;;;;;0.70;0.68;;;4.90;99.90;;;4.97;63.83;99787.88;5142490;27;20200;-75
2022/03/12 06:46:01;;;;;;;1.15;1.05;;;4.90;99.90;;;4.91;62.58;99758.94;5141679;27;20199;-75
2022/03/12 06:48:31;;;;;;;0.80;0.80;;;4.90;99.90;;;4.90;62.49;99747.56;5141114;27;20199;-75
2022/03/12 06:51:00;;;;;;;0.70;0.70;;;4.90;99.90;;;4.86;62.09;99732.63;5142986;27;20224;-74
2022/03/12 06:53:28;;;;;;;0.50;0.50;;;4.90;99.90;;;4.87;61.32;99723.91;5120746;27;20199;-73
2022/03/12 06:55:57;;;;;;;0.50;0.50;;;4.90;99.90;;;4.86;61.35;99713.41;5146496;27;20227;-74
2022/03/12 06:58:26;;;;;;;1.13;1.02;;;4.90;99.90;;;4.87;61.29;99708.19;5112138;27;20223;-73
2022/03/12 07:00:55;;;;;;;1.25;1.15;;;4.90;99.90;;;4.94;61.82;99725.81;5127777;27;20238;-74
2022/03/12 07:03:24;;;;;;;0.80;0.80;;;4.90;99.90;;;4.93;61.89;99720.53;5145816;27;20184;-75
2022/03/12 07:05:52;;;;;;;1.83;1.60;;;4.90;99.90;;;4.95;62.43;99734.56;5122365;27;20211;-75
2022/03/12 07:08:21;;;;;;;1.92;1.83;;;4.90;99.90;;;4.92;62.27;99726.63;5141162;27;20195;-74
2022/03/12 07:10:50;;;;;;;3.08;2.88;;;5.00;99.90;;;4.93;61.60;99713.56;5135319;27;20227;-74
2022/03/12 07:13:18;;;;;;;0.60;0.60;;;4.90;99.90;;;5.04;61.46;99737.34;5118353;27;20211;-73
2022/03/12 07:15:46;;;;;;;0.70;0.70;;;5.00;99.90;;;5.15;63.00;99790.88;5131014;27;20224;-74
2022/03/12 07:18:14;;;;;;;0.73;0.73;;;5.00;99.90;;;5.14;62.05;99779.50;5139155;27;20199;-73
2022/03/12 07:20:42;;;;;;;1.30;1.20;;;5.10;99.90;;;5.15;61.79;99767.28;5136960;27;20223;-73
2022/03/12 07:23:10;;;;;;;1.05;0.93;;;5.10;99.90;;;5.22;61.15;99765.69;5141807;27;20199;-73
2022/03/12 07:25:39;;;;;;;0.80;0.80;;;5.20;99.90;;;5.32;61.70;99789.50;5138510;27;20226;-75
2022/03/12 07:28:06;;;;;;;0.70;0.70;;;5.20;99.90;;;5.38;60.58;99781.75;5137825;27;20211;-74
2022/03/12 07:30:34;;;;;;;0.85;0.82;;;5.30;99.90;;;5.46;60.21;99780.16;5134289;27;20238;-73
2022/03/12 07:33:03;;;;;;;1.25;1.15;;;5.30;99.90;;;5.52;60.26;99792.50;5136986;27;20651;-74
2022/03/12 07:35:31;;;;;;;0.60;0.60;;;5.40;99.90;;;5.51;60.24;99785.50;5136104;27;20219;-74
2022/03/12 07:37:59;;;;;;;0.82;0.82;;;5.50;99.90;;;5.60;59.60;99784.78;5147795;27;20207;-74
2022/03/12 07:40:27;;;;;;;0.88;0.85;;;5.50;99.90;;;5.70;60.23;99808.59;5137798;27;20223;-75
2022/03/12 07:42:55;;;;;;;1.10;1.00;;;5.60;99.90;;;5.83;59.15;99808.81;5140041;27;20206;-74
2022/03/12 07:45:26;;;;;;;0.85;0.82;;;5.70;99.90;;;5.97;59.50;99841.47;5111443;27;20211;-74
2022/03/12 07:47:54;;;;;;;0.73;0.73;;;5.80;99.90;;;6.09;59.87;99858.31;5137456;27;20218;-74
2022/03/12 07:50:23;;;;;;;1.20;1.10;;;5.90;99.90;;;6.15;58.81;99857.53;5136417;27;20227;-75
2022/03/12 07:52:51;;;;;;;1.00;0.90;;;6.00;99.90;;;6.22;58.79;99845.41;5110511;27;20210;-75
2022/03/12 07:55:19;;;;;;;1.40;1.30;;;6.10;99.90;;;6.10;58.28;99819.81;5130987;27;20214;-75
2022/03/12 07:57:47;;;;;;;0.68;0.68;;;6.10;99.90;;;6.29;58.86;99842.91;5137336;27;20220;-75
2022/03/12 08:00:15;;;;;;;0.60;0.60;;;6.20;99.90;;;6.43;59.18;99874.66;5132902;27;20617;-75
2022/03/12 08:02:47;;;;;;;0.70;0.70;;;6.30;99.90;;;6.51;59.00;99872.19;5119042;27;20493;-76
2022/03/12 08:05:21;;;;;;;0.60;0.60;;;6.40;99.90;;;6.71;59.67;99918.94;5140152;27;20195;-75
2022/03/12 08:07:50;;;;;;;0.60;0.60;;;6.50;99.90;;;6.37;58.17;99828.16;5139411;27;20221;-74
2022/03/12 08:10:18;;;;;;;1.27;1.15;;;6.50;99.90;;;6.48;58.38;99836.19;5119498;27;20224;-75
2022/03/12 08:12:46;;;;;;;0.70;0.70;;;6.50;99.90;;;6.52;58.13;99829.28;5127631;27;20204;-74
2022/03/12 08:15:15;;;;;;;0.90;0.90;;;6.50;99.90;;;6.66;58.68;99852.28;5137109;27;20196;-74
2022/03/12 08:17:46;;;;;;;0.73;0.73;;;6.60;99.90;;;6.75;58.27;99854.16;5133650;27;20234;-73
2022/03/12 08:20:15;;;;;;;0.75;0.75;;;6.60;99.90;;;6.78;58.16;99856.84;5107198;27;20229;-74
2022/03/12 08:22:45;;;;;;;0.80;0.80;;;6.70;99.90;;;6.83;58.40;99862.16;5139948;27;20214;-74
2022/03/12 08:25:15;;;;;;;0.70;0.70;;;6.80;99.90;;;7.01;58.32;99886.97;5135827;27;20204;-75
2022/03/12 08:27:43;;;;;;;0.68;0.68;;;6.80;99.90;;;7.01;57.58;99876.47;5139339;27;20199;-75
2022/03/12 08:30:14;;;;;;;1.70;1.50;;;6.90;99.90;;;7.11;57.98;99889.72;5131917;27;20743;-75
2022/03/12 08:32:44;;;;;;;0.70;0.70;;;7.00;99.90;;;7.19;57.82;99874.94;5135141;27;20203;-75
2022/03/12 08:35:14;;;;;;;1.02;0.93;;;7.00;99.90;;;7.44;58.21;99920.88;5137817;27;20218;-74
2022/03/12 08:37:42;;;;;;;1.42;1.17;;;7.10;99.90;;;7.58;57.16;99927.19;5132805;27;20231;-74
2022/03/12 08:40:14;;;;;;;1.30;1.15;;;7.30;99.90;;;7.52;56.59;99893.78;5136674;27;20223;-76
2022/03/12 08:42:43;;;;;;;0.60;0.60;;;7.30;99.90;;;7.35;56.66;99853.25;5136061;27;20211;-76
2022/03/12 08:45:12;;;;;;;1.00;0.90;;;7.40;99.90;;;7.57;56.27;99873.69;5130074;27;20203;-75
2022/03/12 08:47:41;;;;;;;1.90;1.40;;;7.40;99.90;;;7.82;56.68;99909.09;5121765;27;20212;-75
2022/03/12 08:50:10;;;;;;;1.10;1.00;;;7.50;99.90;;;7.96;56.62;99923.31;5114570;27;20227;-75
2022/03/12 08:52:39;;;;;;;1.00;0.90;;;7.70;99.90;;;7.94;56.27;99895.19;5134603;27;20207;-75
2022/03/12 08:55:08;;;;;;;1.23;1.13;;;7.80;99.90;;;7.89;56.19;99878.47;5130195;27;20214;-75
2022/03/12 08:57:37;;;;;;;1.02;0.93;;;7.80;99.90;;;7.85;55.71;99867.03;5131536;27;20239;-75
2022/03/12 09:00:23;;;;;;;1.00;0.95;;;7.90;99.90;;;8.03;55.34;99861.94;5119298;27;20227;-76
2022/03/12 09:02:52;;;;;;;1.15;1.02;;;8.00;99.90;;;8.25;56.25;99909.56;5133043;27;20219;-76
2022/03/12 09:05:21;;;;;;;1.10;1.00;;;8.10;99.90;;;8.14;56.11;99887.50;5131103;27;20663;-75
2022/03/12 09:07:52;;;;;;;0.77;0.77;;;8.20;99.90;;;8.27;56.62;99903.44;5135011;27;20216;-75
2022/03/12 09:10:21;;;;;;;1.42;1.33;;;8.20;99.90;;;8.31;56.20;99896.44;5129822;27;20220;-75
2022/03/12 09:12:50;;;;;;;1.25;1.15;;;8.30;99.90;;;8.64;56.33;99941.59;5134033;27;20212;-75
2022/03/12 09:15:24;;;;;;;2.63;1.83;;;8.50;99.90;;;8.48;55.40;99889.63;5104890;27;20191;-75
2022/03/12 09:17:53;;;;;;;1.00;0.88;;;8.50;99.90;;;8.69;56.34;99919.66;5133470;27;20235;-76
2022/03/12 09:20:26;;;;;;;1.13;0.93;;;8.60;99.90;;;8.57;55.71;99887.06;5093712;27;20219;-75
2022/03/12 09:22:56;;;;;;;1.00;0.90;;;8.60;99.90;;;8.33;55.47;99826.25;5132679;27;20682;-74
2022/03/12 09:25:27;;;;;;;1.65;1.55;;;8.60;99.90;;;8.69;56.08;99882.75;5117339;27;20231;-75
2022/03/12 09:27:59;;;;;;;0.98;0.90;;;8.70;99.90;;;8.44;55.45;99832.50;5128918;27;20207;-74
2022/03/12 09:30:27;;;;;;;2.15;1.33;;;8.70;99.90;;;8.66;55.88;99866.03;5131656;27;20235;-75
2022/03/12 09:32:56;;;;;;;0.40;0.40;;;8.70;99.90;;;8.82;56.21;99892.53;5138295;27;20201;-75
2022/03/12 09:35:25;;;;;;;2.60;1.42;;;8.80;99.90;;;8.86;55.40;99879.38;5133515;27;20203;-75
2022/03/12 09:37:54;;;;;;;1.00;0.90;;;8.90;99.90;;;8.84;54.08;99833.66;5133267;27;20226;-75
2022/03/12 09:40:23;;;;;;;1.63;1.50;;;8.90;99.90;;;9.13;55.14;99888.38;5130057;27;20239;-75
2022/03/12 09:42:51;;;;;;;0.73;0.68;;;9.00;99.90;;;9.21;55.76;99906.00;5142128;27;20222;-75
2022/03/12 09:45:22;;;;;;;3.08;2.88;;;9.10;99.90;;;9.10;55.50;99867.22;5102850;27;20663;-74
2022/03/12 09:47:51;;;;;;;0.55;0.52;;;9.20;99.90;;;9.01;54.86;99838.16;5136111;27;20199;-76
2022/03/12 09:50:19;;;;;;;0.80;0.80;;;9.20;99.90;;;9.11;54.77;99845.28;5123702;27;20235;-76
2022/03/12 09:52:49;;;;;;;1.33;0.90;;;9.20;99.90;;;9.25;54.07;99847.09;5101566;27;20226;-75
2022/03/12 09:55:19;;;;;;;0.77;0.77;;;9.30;99.90;;;9.68;53.92;99897.44;5122684;27;20222;-75
2022/03/12 09:57:55;;;;;;;0.52;0.52;;;9.40;99.90;;;9.79;54.10;99893.06;5140915;27;20226;-75
2022/03/12 10:00:33;;;;;;;0.80;0.80;;;9.60;99.90;;;9.87;53.74;99886.06;5118555;27;20215;-75
2022/03/12 10:03:05;;;;;;;0.95;0.90;;;9.80;99.90;;;10.06;53.37;99883.47;5140333;27;20203;-74
2022/03/12 10:05:36;;;;;;;1.08;0.98;;;9.90;99.90;;;9.89;53.88;99857.00;5136347;27;20211;-75
2022/03/12 10:08:05;;;;;;;0.73;0.73;;;10.00;99.90;;;9.91;53.93;99839.41;5142163;27;20207;-75
2022/03/12 10:10:34;;;;;;;0.70;0.70;;;10.00;99.90;;;10.09;54.01;99859.69;5138373;27;20242;-75
2022/03/12 10:13:05;;;;;;;0.73;0.73;;;10.10;99.90;;;10.34;53.67;99876.50;5136654;27;20199;-75
2022/03/12 10:15:33;;;;;;;0.82;0.82;;;10.30;99.90;;;10.30;53.66;99846.53;5139059;27;20199;-75
2022/03/12 10:18:03;;;;;;;0.93;0.90;;;10.50;99.90;;;10.02;52.97;99773.41;5135415;27;20228;-75
2022/03/12 10:20:34;;;;;;;1.10;0.95;;;10.50;99.50;;;10.15;52.58;99768.13;5135971;27;20230;-75
2022/03/12 10:23:02;;;;;;;1.05;0.93;;;10.40;99.50;;;10.16;52.89;99777.81;5139254;27;20203;-75
2022/03/12 10:25:34;;;;;;;0.50;0.50;;;10.50;99.80;;;10.38;53.25;99812.19;5131401;27;20211;-74
2022/03/12 10:28:03;;;;;;;1.00;0.90;;;10.60;99.90;;;10.67;53.03;99841.28;5130954;27;20208;-75
2022/03/12 10:30:57;;;;;;;2.33;1.55;;;10.80;99.90;;;10.59;52.81;99814.84;5125172;27;20246;-76
2022/03/12 10:33:34;;;;;;;1.20;1.10;;;10.90;99.80;;;10.62;53.27;99809.56;5119594;27;20195;-74
2022/03/12 10:40:47;;;;;;;0.90;0.80;;;11.00;99.90;;;10.84;53.48;99815.69;5132150;27;20706;-75
2022/03/12 10:43:16;;;;;;;0.60;0.60;;;11.30;99.90;;;11.20;53.47;99847.34;5115850;27;20211;-75
2022/03/12 10:45:50;;;;;;;0.68;0.65;;;11.40;99.90;;;11.35;53.60;99864.06;5134683;27;20200;-74
2022/03/12 10:48:22;;;;;;;0.40;0.40;;;11.50;99.90;;;11.34;52.74;99823.47;5118072;27;20212;-75
2022/03/12 10:50:51;;;;;;;1.92;1.02;;;11.70;99.80;;;11.12;52.58;99777.69;5135859;27;20226;-73
2022/03/12 10:53:24;;;;;;;0.20;0.20;;;11.70;99.30;;;11.32;52.86;99798.78;5101647;27;20204;-75